Wolfe, West Virginia
Current Conditions -  °F | °C
As of 4:52 PM on Monday 20 Oct 2014 (Local Time) from KBLF Reporting Station
Light Rain Light Rain  
Wind Chill: 56°   Ceiling: 6000
Heat Index: 56°   Visibility: 10mi
Dew Point: 43°   Wind: 7mph
Humidity: 62%   Direction: 260°W
Pressure: 30"   Gusts: NA
Location:  37.31°N, 81.33°W
Report Text: KBLF 202052Z AUTO 26006KT 10SM -RA OVC060 13/06 A3000 RMK AO2 RAB17 SLP147 P0001 60001 T01330061 56005
Loading
Personal Weather Stations






























Interactive Weather Map New forecast layout! Learn more

10-Day Weather Forecast

Advertisements
Track Severe Weather on mobile